createdAt,value
2018-12-01T00:00:59.623Z,81.11
2018-12-01T00:01:59.621Z,82.04
2018-12-01T00:03:01.211Z,81.11
2018-12-01T00:03:59.605Z,81.21
2018-12-01T00:04:59.571Z,82.18
2018-12-01T00:05:59.569Z,81.62
2018-12-01T00:06:59.563Z,81.46
2018-12-01T00:07:59.627Z,82.07
2018-12-01T00:08:59.542Z,82.90
2018-12-01T00:09:59.535Z,81.62
2018-12-01T00:10:59.523Z,80.80
2018-12-01T00:11:59.499Z,81.21
2018-12-01T00:12:59.546Z,80.70
2018-12-01T00:13:59.478Z,81.11
2018-12-01T00:14:59.469Z,80.60
2018-12-01T00:15:59.469Z,80.80
2018-12-01T00:16:59.454Z,81.11
2018-12-01T00:18:01.201Z,80.91
2018-12-01T00:18:59.428Z,80.70
2018-12-01T00:19:59.416Z,80.80
2018-12-01T00:20:59.403Z,80.60
2018-12-01T00:21:59.388Z,80.49
2018-12-01T00:22:59.435Z,81.01
2018-12-01T00:23:59.369Z,80.08
2018-12-01T00:25:00.514Z,80.87
2018-12-01T00:25:59.355Z,80.05
2018-12-01T00:26:59.330Z,79.94
2018-12-01T00:27:59.354Z,79.91
2018-12-01T00:28:59.314Z,78.98
2018-12-01T00:29:59.385Z,78.57
2018-12-01T00:30:59.294Z,79.02
2018-12-01T00:31:59.281Z,79.49
2018-12-01T00:32:59.294Z,78.27
2018-12-01T00:33:59.305Z,77.95
2018-12-01T00:34:59.256Z,78.06
2018-12-01T00:35:59.236Z,77.85
2018-12-01T00:36:59.226Z,78.78
2018-12-01T00:37:59.276Z,78.27
2018-12-01T00:38:59.211Z,78.88
2018-12-01T00:39:59.240Z,78.88
2018-12-01T00:40:59.183Z,78.20
2018-12-01T00:41:59.177Z,79.33
2018-12-01T00:42:59.191Z,78.71
2018-12-01T00:43:59.152Z,79.63
2018-12-01T00:44:59.138Z,79.53
2018-12-01T00:45:59.122Z,79.33
2018-12-01T00:46:59.131Z,79.12
2018-12-01T00:47:59.114Z,79.26
2018-12-01T00:48:59.129Z,80.60
2018-12-01T00:49:59.082Z,81.01
2018-12-01T00:50:59.067Z,79.26
2018-12-01T00:51:59.112Z,79.47
2018-12-01T00:52:59.053Z,80.19
2018-12-01T00:53:59.060Z,79.98
2018-12-01T00:54:59.029Z,80.29
2018-12-01T00:55:59.009Z,80.84
2018-12-01T00:56:59.015Z,80.12
2018-12-01T00:57:59.002Z,81.15
2018-12-01T00:58:58.997Z,80.84
2018-12-01T00:59:58.973Z,81.19
2018-12-01T01:00:58.967Z,81.19
2018-12-01T01:01:58.991Z,81.70
2018-12-01T01:02:58.944Z,81.49
2018-12-01T01:03:58.937Z,81.23
2018-12-01T01:04:58.921Z,82.25
2018-12-01T01:05:58.906Z,83.63
2018-12-01T01:06:58.895Z,82.77
2018-12-01T01:07:58.923Z,82.87
2018-12-01T01:08:58.934Z,82.40
2018-12-01T01:09:58.861Z,81.67
2018-12-01T01:10:58.857Z,82.43
2018-12-01T01:11:58.841Z,83.47
2018-12-01T01:12:58.824Z,82.95
2018-12-01T01:13:58.835Z,82.89
2018-12-01T01:14:58.800Z,83.91
2018-12-01T01:15:58.818Z,85.36
2018-12-01T01:16:58.781Z,85.09
2018-12-01T01:17:58.777Z,84.36
2018-12-01T01:18:58.795Z,85.19
2018-12-01T01:19:58.737Z,85.39
2018-12-01T01:20:58.740Z,85.30
2018-12-01T01:21:58.738Z,85.39
2018-12-01T01:22:58.712Z,85.71
2018-12-01T01:23:58.723Z,85.19
2018-12-01T01:24:58.736Z,85.50
2018-12-01T01:25:58.694Z,85.30
2018-12-01T01:26:58.661Z,84.74
2018-12-01T01:27:58.662Z,84.12
2018-12-01T01:28:58.661Z,84.16
2018-12-01T01:29:58.626Z,84.99
2018-12-01T01:30:58.629Z,85.19
2018-12-01T01:31:58.626Z,85.54
2018-12-01T01:32:58.602Z,85.54
2018-12-01T01:33:58.680Z,85.64
2018-12-01T01:34:58.588Z,85.64
2018-12-01T01:35:58.573Z,85.58
2018-12-01T01:36:58.559Z,85.27
2018-12-01T01:37:58.540Z,86.86
2018-12-01T01:38:58.578Z,87.07
2018-12-01T01:39:58.525Z,87.07
2018-12-01T01:40:58.507Z,87.07
2018-12-01T01:41:58.493Z,87.07
2018-12-01T01:42:58.494Z,87.48
2018-12-01T01:43:58.503Z,87.07
2018-12-01T01:44:58.474Z,87.02
2018-12-01T01:45:58.455Z,87.48
2018-12-01T01:46:58.450Z,87.07
2018-12-01T01:47:58.434Z,87.37
2018-12-01T01:48:58.436Z,87.27
2018-12-01T01:49:58.409Z,87.27
2018-12-01T01:50:58.439Z,87.79
2018-12-01T01:51:58.387Z,87.93
2018-12-01T01:52:58.378Z,87.83
2018-12-01T01:53:58.390Z,88.86
2018-12-01T01:54:58.350Z,88.86
2018-12-01T01:55:58.341Z,88.82
2018-12-01T01:56:58.321Z,89.03
2018-12-01T01:57:58.322Z,88.20
2018-12-01T01:58:58.336Z,88.98
2018-12-01T01:59:58.328Z,87.60
2018-12-01T02:00:58.279Z,86.88
2018-12-01T02:01:58.284Z,86.78
2018-12-01T02:02:58.263Z,87.13
2018-12-01T02:03:58.301Z,87.02
2018-12-01T02:04:58.240Z,87.34
2018-12-01T02:05:58.236Z,87.81
2018-12-01T02:06:58.214Z,87.08
2018-12-01T02:07:58.207Z,86.47
2018-12-01T02:08:58.223Z,87.08
2018-12-01T02:09:58.212Z,87.23
2018-12-01T02:10:58.174Z,86.92
2018-12-01T02:11:58.167Z,87.54
2018-12-01T02:12:58.158Z,87.23
2018-12-01T02:13:58.141Z,87.34
2018-12-01T02:14:58.155Z,87.89
2018-12-01T02:15:58.153Z,87.89
2018-12-01T02:16:58.109Z,87.74
2018-12-01T02:17:58.092Z,87.44
2018-12-01T02:18:58.090Z,87.44
2018-12-01T02:19:58.094Z,87.13
2018-12-01T02:20:58.061Z,87.19
2018-12-01T02:21:58.049Z,86.68
2018-12-01T02:22:58.062Z,86.84
2018-12-01T02:23:58.021Z,85.50
2018-12-01T02:24:58.038Z,85.71
2018-12-01T02:25:58.008Z,85.87
2018-12-01T02:26:57.992Z,84.19
2018-12-01T02:27:57.984Z,84.74
2018-12-01T02:28:57.971Z,84.08
2018-12-01T02:29:58.008Z,82.74
2018-12-01T02:30:57.945Z,85.36
2018-12-01T02:31:57.940Z,84.94
2018-12-01T02:32:57.921Z,83.61
2018-12-01T02:33:57.919Z,83.98
2018-12-01T02:34:57.931Z,83.47
2018-12-01T02:35:57.884Z,84.29
2018-12-01T02:36:57.901Z,84.74
2018-12-01T02:37:57.874Z,83.15
2018-12-01T02:38:57.854Z,83.05
2018-12-01T02:39:57.875Z,82.95
2018-12-01T02:40:57.838Z,82.54
2018-12-01T02:41:57.819Z,82.95
2018-12-01T02:42:57.810Z,83.26
2018-12-01T02:43:57.802Z,83.26
2018-12-01T02:44:57.813Z,82.95
2018-12-01T02:45:57.773Z,83.91
2018-12-01T02:46:57.761Z,83.87
2018-12-01T02:47:57.790Z,83.36
2018-12-01T02:48:57.739Z,84.29
2018-12-01T02:49:57.758Z,82.70
2018-12-01T02:50:57.740Z,82.40
2018-12-01T02:51:57.704Z,81.81
2018-12-01T02:52:57.705Z,81.61
2018-12-01T02:53:57.690Z,82.98
2018-12-01T02:54:57.668Z,83.61
2018-12-01T02:55:57.702Z,83.78
2018-12-01T02:56:57.645Z,85.64
2018-12-01T02:57:57.634Z,85.75
2018-12-01T02:58:57.627Z,84.88
2018-12-01T02:59:57.685Z,84.27
2018-12-01T03:00:57.627Z,84.41
2018-12-01T03:01:57.596Z,84.96
2018-12-01T03:02:57.627Z,85.75
2018-12-01T03:03:57.575Z,85.06
2018-12-01T03:04:57.569Z,86.86
2018-12-01T03:05:57.569Z,87.27
2018-12-01T03:06:57.539Z,86.98
2018-12-01T03:07:57.535Z,86.22
2018-12-01T03:08:57.572Z,84.22
2018-12-01T03:09:57.507Z,84.12
2018-12-01T03:10:57.523Z,83.95
2018-12-01T03:11:57.478Z,84.72
2018-12-01T03:12:57.476Z,84.78
2018-12-01T03:13:57.460Z,84.78
2018-12-01T03:14:57.447Z,84.81
2018-12-01T03:15:57.462Z,84.88
2018-12-01T03:16:57.425Z,84.36
2018-12-01T03:17:57.427Z,83.85
2018-12-01T03:18:57.408Z,84.88
2018-12-01T03:19:57.399Z,84.57
2018-12-01T03:20:57.406Z,83.68
2018-12-01T03:21:57.377Z,85.33
2018-12-01T03:22:57.360Z,85.02
2018-12-01T03:23:57.369Z,84.92
2018-12-01T03:24:57.339Z,85.23
2018-12-01T03:25:57.352Z,85.85
2018-12-01T03:26:57.310Z,84.20
2018-12-01T03:27:57.309Z,84.72
2018-12-01T03:28:57.287Z,85.02
2018-12-01T03:29:57.281Z,84.92
2018-12-01T03:30:57.343Z,85.64
2018-12-01T03:31:57.267Z,85.19
2018-12-01T03:32:57.253Z,84.27
2018-12-01T03:33:57.238Z,84.81
2018-12-01T03:34:57.235Z,85.13
2018-12-01T03:35:57.225Z,85.95
2018-12-01T03:36:57.225Z,85.54
2018-12-01T03:37:57.194Z,85.39
2018-12-01T03:38:57.181Z,85.19
2018-12-01T03:39:57.211Z,85.09
2018-12-01T03:40:57.163Z,85.19
2018-12-01T03:41:57.174Z,84.78
2018-12-01T03:42:57.141Z,84.88
2018-12-01T03:43:57.121Z,85.15
2018-12-01T03:44:57.114Z,83.67
2018-12-01T03:45:57.129Z,82.68
2018-12-01T03:46:57.123Z,83.29
2018-12-01T03:47:57.069Z,83.26
2018-12-01T03:48:57.064Z,83.36
2018-12-01T03:49:57.113Z,83.19
2018-12-01T03:50:57.048Z,83.61
2018-12-01T03:51:57.053Z,84.33
2018-12-01T03:52:57.054Z,85.36
2018-12-01T03:53:57.001Z,84.99
2018-12-01T03:54:57.000Z,84.01
2018-12-01T03:55:56.989Z,84.80
2018-12-01T03:56:56.997Z,83.56
2018-12-01T03:57:56.968Z,83.56
2018-12-01T03:58:56.950Z,83.56
2018-12-01T03:59:56.947Z,82.74
2018-12-01T04:00:56.933Z,82.67
2018-12-01T04:01:56.946Z,82.35
2018-12-01T04:02:56.902Z,80.88
2018-12-01T04:03:56.895Z,81.02
2018-12-01T04:04:56.882Z,80.71
2018-12-01T04:05:56.916Z,81.26
2018-12-01T04:06:56.930Z,82.05
2018-12-01T04:07:56.852Z,81.53
2018-12-01T04:08:56.848Z,81.33
2018-12-01T04:09:56.825Z,80.88
2018-12-01T04:10:56.821Z,80.88
2018-12-01T04:11:56.832Z,79.58
2018-12-01T04:12:56.796Z,80.09
2018-12-01T04:13:56.782Z,80.81
2018-12-01T04:14:56.773Z,81.40
2018-12-01T04:15:56.765Z,82.19
2018-12-01T04:16:56.767Z,81.43
2018-12-01T04:17:56.747Z,80.91
2018-12-01T04:18:56.733Z,81.23
2018-12-01T04:19:56.719Z,80.47
2018-12-01T04:20:56.704Z,79.44
2018-12-01T04:21:56.741Z,79.68
2018-12-01T04:22:56.690Z,80.61
2018-12-01T04:23:56.678Z,80.95
2018-12-01T04:24:56.667Z,81.84
2018-12-01T04:25:56.658Z,80.81
2018-12-01T04:26:56.654Z,80.81
2018-12-01T04:27:56.637Z,80.09
2018-12-01T04:28:56.663Z,80.61
2018-12-01T04:29:56.602Z,80.85
2018-12-01T04:30:56.587Z,80.71
2018-12-01T04:31:56.610Z,80.19
2018-12-01T04:32:56.563Z,80.09
2018-12-01T04:33:56.603Z,80.65
2018-12-01T04:34:56.546Z,81.02
2018-12-01T04:35:56.539Z,80.02
2018-12-01T04:36:56.553Z,78.10
2018-12-01T04:37:56.521Z,78.96
2018-12-01T04:38:56.497Z,80.33
2018-12-01T04:39:56.489Z,79.72
2018-12-01T04:40:56.481Z,80.79
2018-12-01T04:41:56.488Z,80.95
2018-12-01T04:42:56.479Z,80.13
2018-12-01T04:43:56.446Z,80.68
2018-12-01T04:44:56.446Z,80.99
2018-12-01T04:45:56.430Z,81.34
2018-12-01T04:46:56.433Z,82.26
2018-12-01T04:47:56.410Z,81.85
2018-12-01T04:48:56.402Z,82.37
2018-12-01T04:49:56.374Z,82.57
2018-12-01T04:50:56.370Z,81.65
2018-12-01T04:51:56.373Z,82.40
2018-12-01T04:52:56.348Z,83.78
2018-12-01T04:53:56.328Z,83.81
2018-12-01T04:54:56.348Z,82.57
2018-12-01T04:55:56.312Z,82.26
2018-12-01T04:56:56.320Z,81.65
2018-12-01T04:57:56.291Z,83.29
2018-12-01T04:58:56.287Z,82.10
2018-12-01T04:59:56.271Z,83.03
2018-12-01T05:00:56.258Z,83.54
2018-12-01T05:01:56.263Z,82.92
2018-12-01T05:02:56.226Z,84.06
2018-12-01T05:03:56.226Z,82.92
2018-12-01T05:04:56.203Z,82.98
2018-12-01T05:05:56.202Z,82.57
2018-12-01T05:06:56.207Z,82.10
2018-12-01T05:07:56.263Z,82.82
2018-12-01T05:08:56.170Z,82.45
2018-12-01T05:09:56.163Z,83.85
2018-12-01T05:10:56.152Z,83.37
2018-12-01T05:11:56.152Z,82.86
2018-12-01T05:12:56.176Z,83.06
2018-12-01T05:13:56.113Z,83.93
2018-12-01T05:14:56.094Z,84.65
2018-12-01T05:15:56.091Z,85.17
2018-12-01T05:16:56.098Z,85.58
2018-12-01T05:17:56.064Z,85.37
2018-12-01T05:18:56.048Z,85.31
2018-12-01T05:19:56.088Z,85.89
2018-12-01T05:20:56.024Z,86.10
2018-12-01T05:21:56.049Z,85.58
2018-12-01T05:22:56.007Z,85.68
2018-12-01T05:23:55.988Z,85.33
2018-12-01T05:24:55.980Z,84.41
2018-12-01T05:25:55.967Z,84.61
2018-12-01T05:26:55.985Z,84.81
2018-12-01T05:27:56.007Z,84.92
2018-12-01T05:28:55.943Z,84.92
2018-12-01T05:29:55.927Z,84.44
2018-12-01T05:30:55.908Z,83.97
2018-12-01T05:31:55.935Z,84.21
2018-12-01T05:32:55.894Z,85.70
2018-12-01T05:33:55.892Z,85.84
2018-12-01T05:34:55.899Z,87.08
2018-12-01T05:35:55.866Z,86.67
2018-12-01T05:36:55.860Z,86.98
2018-12-01T05:37:55.870Z,87.29
2018-12-01T05:38:55.836Z,87.33
2018-12-01T05:39:55.823Z,87.85
2018-12-01T05:40:55.855Z,88.30
2018-12-01T05:41:55.794Z,89.34
2018-12-01T05:42:55.808Z,89.23
2018-12-01T05:43:55.781Z,89.89
2018-12-01T05:44:55.759Z,90.04
2018-12-01T05:45:55.762Z,90.25
2018-12-01T05:46:55.734Z,90.00
2018-12-01T05:47:55.743Z,90.20
2018-12-01T05:48:55.729Z,90.14
2018-12-01T05:49:55.723Z,90.45
2018-12-01T05:50:55.694Z,90.35
2018-12-01T05:51:55.677Z,90.77
2018-12-01T05:52:55.697Z,91.80
2018-12-01T05:53:55.653Z,91.80
2018-12-01T05:54:55.655Z,91.24
2018-12-01T05:55:55.672Z,90.93
2018-12-01T05:56:55.635Z,90.62
2018-12-01T05:57:55.645Z,90.62
2018-12-01T05:58:55.610Z,90.52
2018-12-01T05:59:55.598Z,90.31
2018-12-01T06:00:55.590Z,90.00
2018-12-01T06:01:55.624Z,90.37
2018-12-01T06:02:55.594Z,89.86
2018-12-01T06:03:55.552Z,89.75
2018-12-01T06:04:55.535Z,89.13
2018-12-01T06:05:55.541Z,89.89
2018-12-01T06:06:55.525Z,90.14
2018-12-01T06:07:55.535Z,90.77
2018-12-01T06:08:55.501Z,90.97
2018-12-01T06:09:55.485Z,92.01
2018-12-01T06:10:55.526Z,91.39
2018-12-01T06:11:55.460Z,90.87
2018-12-01T06:12:55.481Z,91.39
2018-12-01T06:13:55.483Z,91.49
2018-12-01T06:14:55.437Z,90.87
2018-12-01T06:15:55.433Z,90.77
2018-12-01T06:16:55.407Z,90.87
2018-12-01T06:17:55.416Z,90.87
2018-12-01T06:18:55.390Z,91.43
2018-12-01T06:19:55.415Z,91.49
2018-12-01T06:20:55.364Z,91.39
2018-12-01T06:21:55.353Z,91.14
2018-12-01T06:22:55.367Z,91.45
2018-12-01T06:23:55.333Z,90.58
2018-12-01T06:24:55.326Z,90.12
2018-12-01T06:25:55.360Z,90.44
2018-12-01T06:26:55.313Z,89.50
2018-12-01T06:27:55.308Z,89.61
2018-12-01T06:28:55.272Z,89.67
2018-12-01T06:29:55.260Z,89.25
2018-12-01T06:30:55.248Z,89.25
2018-12-01T06:31:55.236Z,88.64
2018-12-01T06:32:55.261Z,89.15
2018-12-01T06:33:55.242Z,89.15
2018-12-01T06:34:55.204Z,88.76
2018-12-01T06:35:55.193Z,87.21
2018-12-01T06:36:55.183Z,87.52
2018-12-01T06:37:55.194Z,87.15
2018-12-01T06:38:55.159Z,87.62
2018-12-01T06:39:55.150Z,87.93
2018-12-01T06:40:55.138Z,87.62
2018-12-01T06:41:55.127Z,87.87
2018-12-01T06:42:55.174Z,87.76
2018-12-01T06:43:55.103Z,88.18
2018-12-01T06:44:55.086Z,88.59
2018-12-01T06:45:55.077Z,88.70
2018-12-01T06:46:55.071Z,88.59
2018-12-01T06:47:55.085Z,88.90
2018-12-01T06:48:55.090Z,87.97
2018-12-01T06:49:55.032Z,87.76
2018-12-01T06:50:55.020Z,88.07
2018-12-01T06:51:55.013Z,88.64
2018-12-01T06:52:55.025Z,89.92
2018-12-01T06:53:54.990Z,90.78
2018-12-01T06:54:54.984Z,91.26
2018-12-01T06:55:54.963Z,91.57
2018-12-01T06:56:54.959Z,91.26
2018-12-01T06:57:54.987Z,91.78
2018-12-01T06:58:54.932Z,91.72
2018-12-01T06:59:54.950Z,91.16
2018-12-01T07:00:54.912Z,91.16
2018-12-01T07:01:54.898Z,91.38
2018-12-01T07:02:54.921Z,89.73
2018-12-01T07:03:54.914Z,87.66
2018-12-01T07:04:54.870Z,88.28
2018-12-01T07:05:54.863Z,89.56
2018-12-01T07:06:54.840Z,90.74
2018-12-01T07:07:54.861Z,91.05
2018-12-01T07:08:54.818Z,91.22
2018-12-01T07:09:54.851Z,91.57
2018-12-01T07:10:54.811Z,91.32
2018-12-01T07:11:54.794Z,91.57
2018-12-01T07:12:54.799Z,91.07
2018-12-01T07:13:54.764Z,90.14
2018-12-01T07:14:54.753Z,89.79
2018-12-01T07:15:54.742Z,88.55
2018-12-01T07:16:54.763Z,89.79
2018-12-01T07:17:54.742Z,89.32
2018-12-01T07:18:54.735Z,90.35
2018-12-01T07:19:54.696Z,89.94
2018-12-01T07:20:54.692Z,89.54
2018-12-01T07:21:54.674Z,88.98
2018-12-01T07:22:54.667Z,87.02
2018-12-01T07:23:54.673Z,87.37
2018-12-01T07:24:54.694Z,89.03
2018-12-01T07:25:54.626Z,88.10
2018-12-01T07:26:54.620Z,88.71
2018-12-01T07:27:54.607Z,89.23
2018-12-01T07:28:54.620Z,89.79
2018-12-01T07:29:58.079Z,89.69
2018-12-01T07:30:54.576Z,89.59
2018-12-01T07:31:54.574Z,90.37
2018-12-01T07:32:54.547Z,90.12
2018-12-01T07:33:54.597Z,88.80
2018-12-01T07:34:54.529Z,85.50
2018-12-01T07:35:54.526Z,86.88
2018-12-01T07:36:54.511Z,87.05
2018-12-01T07:37:54.497Z,86.49
2018-12-01T07:38:54.507Z,85.25
2018-12-01T07:39:54.467Z,85.36
2018-12-01T07:40:54.464Z,85.25
2018-12-01T07:41:54.448Z,84.53
2018-12-01T07:42:54.440Z,85.05
2018-12-01T07:43:54.447Z,85.36
2018-12-01T07:44:54.476Z,84.67
2018-12-01T07:45:54.411Z,85.19
2018-12-01T07:46:54.388Z,84.88
2018-12-01T07:47:54.384Z,86.02
2018-12-01T07:48:54.392Z,85.71
2018-12-01T07:49:54.366Z,85.75
2018-12-01T07:50:54.351Z,86.98
2018-12-01T07:51:54.390Z,86.78
2018-12-01T07:52:54.332Z,86.78
2018-12-01T07:53:54.341Z,86.68
2018-12-01T07:54:54.307Z,87.08
2018-12-01T07:55:54.295Z,87.19
2018-12-01T07:56:54.280Z,87.08
2018-12-01T07:57:54.266Z,87.29
2018-12-01T07:58:54.279Z,86.88
2018-12-01T07:59:54.249Z,87.60
2018-12-01T08:00:54.238Z,86.74
2018-12-01T08:01:54.216Z,87.05
2018-12-01T08:02:54.216Z,87.11
2018-12-01T08:03:54.285Z,86.22
2018-12-01T08:04:54.185Z,87.01
2018-12-01T08:05:54.186Z,86.70
2018-12-01T08:06:54.171Z,86.70
2018-12-01T08:07:54.164Z,86.55
2018-12-01T08:08:54.215Z,84.25
2018-12-01T08:09:54.135Z,83.73
2018-12-01T08:10:54.137Z,83.73
2018-12-01T08:11:54.108Z,84.45
2018-12-01T08:12:54.109Z,83.53
2018-12-01T08:13:54.119Z,85.07
2018-12-01T08:14:54.080Z,83.94
2018-12-01T08:15:54.124Z,84.42
2018-12-01T08:16:54.061Z,84.00
2018-12-01T08:17:54.046Z,82.77
2018-12-01T08:18:54.103Z,82.87
2018-12-01T08:19:54.030Z,82.25
2018-12-01T08:20:54.013Z,82.35
2018-12-01T08:21:54.010Z,82.87
2018-12-01T08:22:54.004Z,83.70
2018-12-01T08:23:54.007Z,82.91
2018-12-01T08:24:53.972Z,83.84
2018-12-01T08:25:54.006Z,83.73
2018-12-01T08:26:53.954Z,83.39
2018-12-01T08:27:53.945Z,83.14
2018-12-01T08:28:53.980Z,82.56
2018-12-01T08:29:53.911Z,82.05
2018-12-01T08:30:53.905Z,82.83
2018-12-01T08:31:53.894Z,82.21
2018-12-01T08:32:53.921Z,81.97
2018-12-01T08:33:53.895Z,80.74
2018-12-01T08:34:53.862Z,80.94
2018-12-01T08:35:53.854Z,81.05
2018-12-01T08:36:53.843Z,80.60
2018-12-01T08:37:53.831Z,80.80
2018-12-01T08:38:53.872Z,80.84
2018-12-01T08:39:53.807Z,81.01
2018-12-01T08:40:53.791Z,80.91
2018-12-01T08:41:53.782Z,79.98
2018-12-01T08:42:53.781Z,80.80
2018-12-01T08:43:53.799Z,79.02
2018-12-01T08:44:53.751Z,79.91
2018-12-01T08:45:53.738Z,78.81
2018-12-01T08:46:53.726Z,79.22
2018-12-01T08:47:53.719Z,80.01
2018-12-01T08:48:53.761Z,79.02
2018-12-01T08:49:53.698Z,79.63
2018-12-01T08:50:53.683Z,80.15
2018-12-01T08:51:53.668Z,79.57
2018-12-01T08:52:53.659Z,80.25
2018-12-01T08:53:53.675Z,80.70
2018-12-01T08:54:53.635Z,80.39
2018-12-01T08:55:53.662Z,80.19
2018-12-01T08:56:53.621Z,80.29
2018-12-01T08:57:53.608Z,80.46
2018-12-01T08:58:53.615Z,80.15
2018-12-01T08:59:53.593Z,79.02
2018-12-01T09:00:53.564Z,80.01
2018-12-01T09:01:53.562Z,79.19
2018-12-01T09:02:53.601Z,79.02
2018-12-01T09:03:53.563Z,79.43
2018-12-01T09:04:53.519Z,79.88
2018-12-01T09:05:53.532Z,80.25
2018-12-01T09:06:53.533Z,80.46
2018-12-01T09:07:53.492Z,79.94
2018-12-01T09:08:53.483Z,80.25
2018-12-01T09:09:53.503Z,80.77
2018-12-01T09:10:53.457Z,81.04
2018-12-01T09:11:53.450Z,80.42
2018-12-01T09:12:53.466Z,80.97
2018-12-01T09:13:53.427Z,81.28
2018-12-01T09:14:53.445Z,81.38
2018-12-01T09:15:53.403Z,81.48
2018-12-01T09:16:53.391Z,81.90
2018-12-01T09:17:53.383Z,82.10
2018-12-01T09:18:53.382Z,81.69
2018-12-01T09:19:53.378Z,82.20
2018-12-01T09:20:53.352Z,81.18
2018-12-01T09:21:53.338Z,81.07
2018-12-01T09:22:53.397Z,81.18
2018-12-01T09:23:53.319Z,81.18
2018-12-01T09:24:53.326Z,81.18
2018-12-01T09:25:53.291Z,82.20
2018-12-01T09:26:53.314Z,81.38
2018-12-01T09:27:53.274Z,81.18
2018-12-01T09:28:53.264Z,80.77
2018-12-01T09:29:53.277Z,80.83
2018-12-01T09:30:53.235Z,80.63
2018-12-01T09:31:53.231Z,80.11
2018-12-01T09:32:53.218Z,80.42
2018-12-01T09:33:53.198Z,80.21
2018-12-01T09:34:53.279Z,80.63
2018-12-01T09:35:53.178Z,79.91
2018-12-01T09:36:53.172Z,79.49
2018-12-01T09:37:53.208Z,79.49
2018-12-01T09:38:53.145Z,79.91
2018-12-01T09:39:53.165Z,79.36
2018-12-01T09:40:53.130Z,79.77
2018-12-01T09:41:53.113Z,78.64
2018-12-01T09:42:53.104Z,79.25
2018-12-01T09:43:53.083Z,78.85
2018-12-01T09:44:53.145Z,79.56
2018-12-01T09:45:53.071Z,78.94
2018-12-01T09:46:53.060Z,78.64
2018-12-01T09:47:53.046Z,79.05
2018-12-01T09:48:53.034Z,79.01
2018-12-01T09:49:53.088Z,78.43
2018-12-01T09:50:53.016Z,78.94
2018-12-01T09:51:53.003Z,79.42
2018-12-01T09:52:53.003Z,78.29
2018-12-01T09:53:52.980Z,78.19
2018-12-01T09:54:53.468Z,78.09
2018-12-01T09:55:52.961Z,78.39
2018-12-01T09:56:52.952Z,77.98
2018-12-01T09:57:52.942Z,78.29
2018-12-01T09:58:52.929Z,79.01
2018-12-01T09:59:52.937Z,79.01
2018-12-01T10:00:52.959Z,78.91
2018-12-01T10:01:52.897Z,79.05
2018-12-01T10:02:52.888Z,79.22
2018-12-01T10:03:52.877Z,78.56
2018-12-01T10:04:52.887Z,78.50
2018-12-01T10:05:52.854Z,78.91
2018-12-01T10:06:52.840Z,78.60
2018-12-01T10:07:52.842Z,79.32
2018-12-01T10:08:52.813Z,78.09
2018-12-01T10:09:52.831Z,78.39
2018-12-01T10:10:52.806Z,78.09
2018-12-01T10:11:52.772Z,78.05
2018-12-01T10:12:52.784Z,78.67
2018-12-01T10:13:52.761Z,77.20
2018-12-01T10:14:52.773Z,77.40
2018-12-01T10:15:52.787Z,77.71
2018-12-01T10:16:52.720Z,77.29
2018-12-01T10:17:52.742Z,77.50
2018-12-01T10:18:56.470Z,77.29
2018-12-01T10:19:52.714Z,77.36
2018-12-01T10:20:52.680Z,77.77
2018-12-01T10:21:52.671Z,77.36
2018-12-01T10:22:52.654Z,76.92
2018-12-01T10:23:52.670Z,76.40
2018-12-01T10:24:52.655Z,75.99
2018-12-01T10:25:52.669Z,76.20
2018-12-01T10:26:52.614Z,75.18
2018-12-01T10:27:52.603Z,75.79
2018-12-01T10:28:52.598Z,75.89
2018-12-01T10:29:52.599Z,75.99
2018-12-01T10:30:52.567Z,75.69
2018-12-01T10:31:52.612Z,75.48
2018-12-01T10:32:52.557Z,75.89
2018-12-01T10:33:52.534Z,75.38
2018-12-01T10:34:52.544Z,75.89
2018-12-01T10:35:52.551Z,75.99
2018-12-01T10:36:52.510Z,75.59
2018-12-01T10:37:52.493Z,75.69
2018-12-01T10:38:52.475Z,75.89
2018-12-01T10:39:52.561Z,75.48
2018-12-01T10:40:52.453Z,75.69
2018-12-01T10:41:52.450Z,75.48
2018-12-01T10:42:52.437Z,74.66
2018-12-01T10:43:52.420Z,74.26
2018-12-01T10:44:52.436Z,74.26
2018-12-01T10:45:52.445Z,74.15
2018-12-01T10:46:52.395Z,74.36
2018-12-01T10:47:52.373Z,73.74
2018-12-01T10:48:52.372Z,73.03
2018-12-01T10:49:52.439Z,72.82
2018-12-01T10:50:52.346Z,73.03
2018-12-01T10:51:52.334Z,73.13
2018-12-01T10:52:52.340Z,73.23
2018-12-01T10:53:52.300Z,74.26
2018-12-01T10:54:52.330Z,73.13
2018-12-01T10:55:52.330Z,73.10
2018-12-01T10:56:52.286Z,73.33
2018-12-01T10:57:52.270Z,72.99
2018-12-01T10:58:52.244Z,72.58
2018-12-01T10:59:52.272Z,72.52
2018-12-01T11:00:52.230Z,72.31
2018-12-01T11:01:52.294Z,72.61
2018-12-01T11:02:55.572Z,73.33
2018-12-01T11:03:52.213Z,72.78
2018-12-01T11:04:52.207Z,73.61
2018-12-01T11:05:52.182Z,72.99
2018-12-01T11:06:52.155Z,73.13
2018-12-01T11:07:52.145Z,72.78
2018-12-01T11:08:52.137Z,72.72
2018-12-01T11:09:52.194Z,72.31
2018-12-01T11:10:55.242Z,72.07
2018-12-01T11:11:52.107Z,71.80
2018-12-01T11:12:52.154Z,72.11
2018-12-01T11:13:52.087Z,71.39
2018-12-01T11:14:52.079Z,71.49
2018-12-01T11:15:52.082Z,71.18
2018-12-01T11:16:52.055Z,70.98
2018-12-01T11:17:52.094Z,71.80
2018-12-01T11:18:52.040Z,70.98
2018-12-01T11:19:52.014Z,70.47
2018-12-01T11:20:52.029Z,72.20
2018-12-01T11:21:52.009Z,70.26
2018-12-01T11:22:51.987Z,70.77
2018-12-01T11:23:51.971Z,69.85
2018-12-01T11:24:52.030Z,70.47
2018-12-01T11:25:51.984Z,70.36
2018-12-01T11:26:51.937Z,70.06
2018-12-01T11:27:51.933Z,70.06
2018-12-01T11:28:51.965Z,71.08
2018-12-01T11:29:51.902Z,70.16
2018-12-01T11:30:51.921Z,69.82
2018-12-01T11:31:51.882Z,69.31
2018-12-01T11:32:51.882Z,69.20
2018-12-01T11:33:51.854Z,70.12
2018-12-01T11:34:51.863Z,70.09
2018-12-01T11:35:51.853Z,69.68
2018-12-01T11:36:51.830Z,68.46
2018-12-01T11:37:51.825Z,69.48
2018-12-01T11:38:51.844Z,68.66
2018-12-01T11:39:51.798Z,69.27
2018-12-01T11:40:51.808Z,69.07
2018-12-01T11:41:51.775Z,68.66
2018-12-01T11:42:51.756Z,69.38
2018-12-01T11:43:51.748Z,68.42
2018-12-01T11:44:56.803Z,66.78
2018-12-01T11:45:52.753Z,67.60
2018-12-01T11:46:51.771Z,68.42
2018-12-01T11:47:51.711Z,68.22
2018-12-01T11:48:51.686Z,68.42
2018-12-01T11:49:51.685Z,68.42
2018-12-01T11:50:51.698Z,67.94
2018-12-01T11:51:51.669Z,67.81
2018-12-01T11:52:51.643Z,67.60
2018-12-01T11:53:51.638Z,66.38
2018-12-01T11:54:51.639Z,66.69
2018-12-01T11:55:51.630Z,66.89
2018-12-01T11:56:51.598Z,65.25
2018-12-01T11:57:51.585Z,65.46
2018-12-01T11:58:51.573Z,65.46
2018-12-01T11:59:51.575Z,66.45
2018-12-01T12:00:51.592Z,65.94
2018-12-01T12:01:51.549Z,66.35
2018-12-01T12:02:51.571Z,65.53
2018-12-01T12:03:51.537Z,66.07
2018-12-01T12:04:51.519Z,65.25
2018-12-01T12:05:51.532Z,66.69
2018-12-01T12:06:51.494Z,66.17
2018-12-01T12:07:51.482Z,66.07
2018-12-01T12:08:51.511Z,66.58
2018-12-01T12:09:51.460Z,66.58
2018-12-01T12:10:51.474Z,66.78
2018-12-01T12:11:51.447Z,66.58
2018-12-01T12:12:51.418Z,65.36
2018-12-01T12:13:51.416Z,65.36
2018-12-01T12:14:52.196Z,65.56
2018-12-01T12:15:51.416Z,65.36
2018-12-01T12:16:51.387Z,66.17
2018-12-01T12:17:51.364Z,64.84
2018-12-01T12:18:51.395Z,64.74
2018-12-01T12:19:51.343Z,65.28
2018-12-01T12:20:51.356Z,65.53
2018-12-01T12:21:51.369Z,65.25
2018-12-01T12:22:51.307Z,63.72
2018-12-01T12:23:51.298Z,64.43
2018-12-01T12:24:51.290Z,65.05
2018-12-01T12:25:51.316Z,65.56
2018-12-01T12:26:51.279Z,65.56
2018-12-01T12:27:51.252Z,64.84
2018-12-01T12:28:51.243Z,65.56
2018-12-01T12:29:51.270Z,65.59
2018-12-01T12:30:51.253Z,65.59
2018-12-01T12:31:51.219Z,65.28
2018-12-01T12:32:51.202Z,66.41
2018-12-01T12:33:51.191Z,65.93
2018-12-01T12:34:51.183Z,66.95
2018-12-01T12:35:51.242Z,67.23
2018-12-01T12:36:51.149Z,66.82
2018-12-01T12:37:51.146Z,67.16
2018-12-01T12:38:51.161Z,65.72
2018-12-01T12:39:51.131Z,65.01
2018-12-01T12:40:51.142Z,65.08
2018-12-01T12:41:51.118Z,65.18
2018-12-01T12:42:51.081Z,65.52
2018-12-01T12:43:51.082Z,65.42
2018-12-01T12:44:51.099Z,65.49
2018-12-01T12:45:51.078Z,65.62
2018-12-01T12:46:51.049Z,65.31
2018-12-01T12:47:51.041Z,65.52
2018-12-01T12:48:51.027Z,65.42
2018-12-01T12:49:51.009Z,65.31
2018-12-01T12:50:53.262Z,65.45
2018-12-01T12:51:51.000Z,66.67
2018-12-01T12:52:50.995Z,66.88